createdAt,value
2018-07-13T00:00:48.603Z,972.87
2018-07-13T00:01:48.656Z,972.87
2018-07-13T00:02:48.705Z,972.92
2018-07-13T00:03:48.788Z,972.87
2018-07-13T00:04:48.805Z,972.87
2018-07-13T00:05:48.856Z,972.86
2018-07-13T00:06:48.905Z,972.81
2018-07-13T00:07:48.953Z,972.80
2018-07-13T00:08:49.033Z,972.85
2018-07-13T00:09:49.052Z,972.84
2018-07-13T00:10:49.103Z,972.83
2018-07-13T00:11:49.158Z,972.86
2018-07-13T00:12:49.205Z,972.86
2018-07-13T00:13:49.277Z,972.86
2018-07-13T00:14:49.326Z,972.87
2018-07-13T00:15:49.355Z,972.85
2018-07-13T00:16:49.404Z,972.88
2018-07-13T00:17:49.452Z,972.85
2018-07-13T00:18:49.501Z,972.89
2018-07-13T00:19:49.594Z,972.87
2018-07-13T00:20:49.601Z,972.88
2018-07-13T00:21:49.650Z,972.86
2018-07-13T00:22:49.702Z,972.88
2018-07-13T00:23:49.750Z,972.87
2018-07-13T00:24:49.836Z,972.87
2018-07-13T00:25:49.852Z,972.84
2018-07-13T00:26:49.900Z,972.86
2018-07-13T00:27:49.951Z,972.80
2018-07-13T00:28:49.997Z,972.82
2018-07-13T00:29:50.078Z,972.79
2018-07-13T00:30:50.109Z,972.79
2018-07-13T00:31:50.148Z,972.81
2018-07-13T00:32:50.200Z,972.80
2018-07-13T00:33:50.247Z,972.82
2018-07-13T00:34:50.335Z,972.78
2018-07-13T00:35:50.346Z,972.79
2018-07-13T00:36:50.401Z,972.80
2018-07-13T00:37:50.448Z,972.82
2018-07-13T00:38:50.495Z,972.81
2018-07-13T00:39:50.577Z,972.81
2018-07-13T00:40:50.594Z,972.82
2018-07-13T00:41:50.687Z,972.82
2018-07-13T00:42:50.696Z,972.81
2018-07-13T00:43:50.742Z,972.88
2018-07-13T00:44:50.793Z,972.84
2018-07-13T00:45:50.842Z,972.86
2018-07-13T00:46:50.922Z,972.88
2018-07-13T00:47:50.941Z,972.90
2018-07-13T00:48:50.990Z,972.89
2018-07-13T00:49:51.046Z,972.87
2018-07-13T00:50:51.091Z,972.88
2018-07-13T00:51:51.165Z,972.87
2018-07-13T00:52:51.190Z,972.85
2018-07-13T00:53:51.239Z,972.86
2018-07-13T00:54:51.290Z,972.85
2018-07-13T00:55:51.338Z,972.88
2018-07-13T00:56:51.417Z,972.86
2018-07-13T00:57:51.439Z,972.84
2018-07-13T00:58:51.487Z,972.87
2018-07-13T00:59:51.539Z,972.88
2018-07-13T01:00:51.586Z,972.85
2018-07-13T01:01:51.669Z,972.85
2018-07-13T01:02:51.685Z,972.90
2018-07-13T01:03:51.760Z,972.87
2018-07-13T01:04:51.784Z,972.84
2018-07-13T01:05:51.834Z,972.87
2018-07-13T01:06:51.887Z,972.88
2018-07-13T01:07:51.935Z,972.88
2018-07-13T01:08:52.097Z,972.87
2018-07-13T01:09:52.036Z,972.85
2018-07-13T01:10:52.081Z,972.86
2018-07-13T01:11:52.136Z,972.87
2018-07-13T01:12:52.211Z,972.89
2018-07-13T01:13:52.231Z,972.87
2018-07-13T01:14:52.283Z,972.86
2018-07-13T01:15:52.330Z,972.90
2018-07-13T01:16:52.378Z,972.89
2018-07-13T01:17:52.455Z,972.89
2018-07-13T01:18:52.502Z,972.90
2018-07-13T01:19:52.544Z,972.93
2018-07-13T01:20:52.578Z,972.89
2018-07-13T01:21:52.626Z,972.90
2018-07-13T01:22:52.692Z,972.91
2018-07-13T01:23:52.748Z,972.92
2018-07-13T01:24:52.778Z,972.94
2018-07-13T01:25:52.830Z,972.89
2018-07-13T01:26:52.875Z,972.91
2018-07-13T01:27:52.922Z,972.93
2018-07-13T01:28:52.998Z,972.93
2018-07-13T01:29:53.050Z,972.93
2018-07-13T01:30:53.070Z,972.97
2018-07-13T01:31:53.124Z,972.95
2018-07-13T01:32:53.171Z,972.96
2018-07-13T01:33:53.219Z,972.96
2018-07-13T01:34:53.305Z,972.94
2018-07-13T01:35:53.320Z,972.98
2018-07-13T01:36:53.373Z,972.98
2018-07-13T01:37:53.416Z,972.99
2018-07-13T01:38:53.466Z,972.98
2018-07-13T01:39:53.558Z,972.98
2018-07-13T01:40:53.568Z,972.99
2018-07-13T01:41:53.613Z,973.02
2018-07-13T01:42:53.667Z,972.99
2018-07-13T01:43:53.712Z,973.05
2018-07-13T01:44:53.794Z,973.03
2018-07-13T01:45:53.811Z,973.07
2018-07-13T01:46:53.870Z,973.01
2018-07-13T01:47:53.914Z,973.02
2018-07-13T01:48:53.970Z,973.05
2018-07-13T01:49:54.034Z,973.05
2018-07-13T01:50:54.082Z,973.05
2018-07-13T01:51:54.108Z,973.02
2018-07-13T01:52:54.165Z,973.02
2018-07-13T01:53:54.207Z,972.99
2018-07-13T01:54:54.257Z,973.00
2018-07-13T01:55:54.330Z,972.99
2018-07-13T01:56:54.358Z,972.98
2018-07-13T01:57:54.404Z,972.96
2018-07-13T01:58:54.454Z,973.00
2018-07-13T01:59:54.507Z,972.99
2018-07-13T02:00:54.579Z,973.00
2018-07-13T02:01:54.633Z,972.96
2018-07-13T02:02:54.654Z,973.01
2018-07-13T02:03:54.706Z,972.97
2018-07-13T02:04:54.751Z,972.99
2018-07-13T02:05:54.809Z,972.96
2018-07-13T02:06:55.110Z,972.92
2018-07-13T02:07:54.899Z,972.99
2018-07-13T02:08:54.948Z,972.97
2018-07-13T02:09:54.999Z,972.99
2018-07-13T02:10:55.046Z,972.99
2018-07-13T02:11:55.119Z,973.04
2018-07-13T02:12:55.168Z,973.01
2018-07-13T02:13:55.196Z,973.00
2018-07-13T02:14:55.250Z,973.05
2018-07-13T02:15:55.294Z,973.03
2018-07-13T02:16:55.372Z,973.03
2018-07-13T02:17:55.391Z,973.05
2018-07-13T02:18:55.442Z,973.03
2018-07-13T02:19:55.490Z,973.03
2018-07-13T02:20:55.540Z,973.02
2018-07-13T02:21:55.610Z,973.02
2018-07-13T02:22:55.640Z,973.00
2018-07-13T02:23:55.711Z,973.01
2018-07-13T02:24:55.738Z,973.02
2018-07-13T02:25:55.786Z,973.04
2018-07-13T02:26:55.834Z,973.06
2018-07-13T02:27:55.908Z,973.07
2018-07-13T02:28:55.933Z,973.05
2018-07-13T02:29:55.982Z,973.06
2018-07-13T02:30:56.032Z,973.06
2018-07-13T02:31:56.081Z,973.11
2018-07-13T02:32:56.155Z,973.06
2018-07-13T02:33:56.283Z,973.08
2018-07-13T02:34:56.281Z,973.07
2018-07-13T02:35:56.281Z,973.09
2018-07-13T02:36:56.326Z,973.10
2018-07-13T02:37:56.392Z,973.14
2018-07-13T02:38:56.439Z,973.12
2018-07-13T02:39:56.503Z,973.11
2018-07-13T02:40:56.525Z,973.08
2018-07-13T02:41:56.575Z,973.08
2018-07-13T02:42:56.633Z,973.09
2018-07-13T02:43:56.672Z,973.09
2018-07-13T02:44:56.752Z,973.12
2018-07-13T02:45:56.769Z,973.12
2018-07-13T02:46:56.821Z,973.11
2018-07-13T02:47:56.868Z,973.11
2018-07-13T02:48:56.917Z,973.15
2018-07-13T02:49:56.997Z,973.13
2018-07-13T02:50:57.019Z,973.12
2018-07-13T02:51:57.065Z,973.10
2018-07-13T02:52:57.113Z,973.12
2018-07-13T02:53:57.166Z,973.15
2018-07-13T02:54:57.240Z,973.15
2018-07-13T02:55:57.264Z,973.11
2018-07-13T02:56:57.311Z,973.09
2018-07-13T02:57:57.360Z,973.12
2018-07-13T02:58:57.411Z,973.14
2018-07-13T02:59:57.482Z,973.16
2018-07-13T03:00:57.515Z,973.17
2018-07-13T03:01:57.582Z,973.15
2018-07-13T03:02:57.606Z,973.18
2018-07-13T03:03:57.657Z,973.16
2018-07-13T03:04:58.586Z,973.18
2018-07-13T03:05:57.782Z,973.20
2018-07-13T03:06:57.804Z,973.25
2018-07-13T03:07:57.852Z,973.19
2018-07-13T03:08:57.903Z,973.22
2018-07-13T03:09:57.950Z,973.22
2018-07-13T03:10:58.034Z,973.23
2018-07-13T03:11:58.048Z,973.26
2018-07-13T03:12:58.097Z,973.26
2018-07-13T03:13:58.145Z,973.25
2018-07-13T03:14:58.195Z,973.33
2018-07-13T03:15:58.277Z,973.33
2018-07-13T03:16:58.292Z,973.39
2018-07-13T03:17:58.346Z,973.35
2018-07-13T03:18:58.421Z,973.38
2018-07-13T03:19:58.441Z,973.37
2018-07-13T03:20:58.489Z,973.40
2018-07-13T03:21:58.540Z,973.40
2018-07-13T03:22:58.587Z,973.40
2018-07-13T03:23:58.660Z,973.40
2018-07-13T03:24:58.685Z,973.42
2018-07-13T03:25:58.734Z,973.42
2018-07-13T03:26:58.811Z,973.43
2018-07-13T03:27:58.832Z,973.41
2018-07-13T03:28:58.883Z,973.43
2018-07-13T03:29:58.954Z,973.42
2018-07-13T03:30:58.982Z,973.41
2018-07-13T03:31:59.031Z,973.45
2018-07-13T03:32:59.106Z,973.40
2018-07-13T03:33:59.127Z,973.43
2018-07-13T03:34:59.181Z,973.44
2018-07-13T03:35:59.227Z,973.46
2018-07-13T03:36:59.282Z,973.45
2018-07-13T03:37:59.355Z,973.41
2018-07-13T03:38:59.372Z,973.45
2018-07-13T03:39:59.426Z,973.45
2018-07-13T03:40:59.471Z,973.44
2018-07-13T03:41:59.523Z,973.44
2018-07-13T03:42:59.592Z,973.47
2018-07-13T03:43:59.675Z,973.48
2018-07-13T03:44:59.667Z,973.47
2018-07-13T03:45:59.754Z,973.50
2018-07-13T03:46:59.766Z,973.50
2018-07-13T03:47:59.817Z,973.54
2018-07-13T03:48:59.865Z,973.56
2018-07-13T03:49:59.913Z,973.54
2018-07-13T03:50:59.985Z,973.57
2018-07-13T03:52:00.021Z,973.55
2018-07-13T03:53:00.117Z,973.56
2018-07-13T03:54:00.149Z,973.58
2018-07-13T03:55:00.157Z,973.58
2018-07-13T03:56:00.208Z,973.59
2018-07-13T03:57:00.286Z,973.58
2018-07-13T03:58:00.307Z,973.58
2018-07-13T03:59:00.357Z,973.60
2018-07-13T04:00:00.428Z,973.56
2018-07-13T04:01:00.450Z,973.55
2018-07-13T04:02:00.503Z,973.58
2018-07-13T04:03:00.573Z,973.55
2018-07-13T04:04:00.601Z,973.57
2018-07-13T04:05:00.647Z,973.57
2018-07-13T04:06:00.697Z,973.61
2018-07-13T04:07:00.758Z,973.59
2018-07-13T04:08:00.819Z,973.62
2018-07-13T04:09:00.846Z,973.62
2018-07-13T04:10:00.891Z,973.65
2018-07-13T04:11:00.942Z,973.64
2018-07-13T04:12:01.016Z,973.65
2018-07-13T04:13:01.039Z,973.64
2018-07-13T04:14:01.130Z,973.65
2018-07-13T04:15:01.138Z,973.63
2018-07-13T04:16:01.186Z,973.68
2018-07-13T04:17:01.237Z,973.63
2018-07-13T04:18:01.284Z,973.66
2018-07-13T04:19:01.365Z,973.64
2018-07-13T04:20:01.384Z,973.66
2018-07-13T04:21:01.432Z,973.66
2018-07-13T04:22:01.483Z,973.66
2018-07-13T04:23:01.531Z,973.67
2018-07-13T04:24:01.609Z,973.69
2018-07-13T04:25:01.627Z,973.67
2018-07-13T04:26:01.678Z,973.65
2018-07-13T04:27:01.725Z,973.68
2018-07-13T04:28:01.781Z,973.68
2018-07-13T04:29:01.847Z,973.68
2018-07-13T04:30:01.881Z,973.70
2018-07-13T04:31:01.921Z,973.68
2018-07-13T04:32:01.970Z,973.71
2018-07-13T04:33:02.046Z,973.70
2018-07-13T04:34:02.077Z,973.71
2018-07-13T04:35:02.119Z,973.71
2018-07-13T04:36:02.170Z,973.72
2018-07-13T04:37:02.215Z,973.73
2018-07-13T04:38:02.288Z,973.72
2018-07-13T04:39:02.313Z,973.70
2018-07-13T04:40:02.387Z,973.74
2018-07-13T04:41:02.434Z,973.73
2018-07-13T04:42:02.486Z,973.69
2018-07-13T04:43:02.511Z,973.68
2018-07-13T04:44:02.585Z,973.72
2018-07-13T04:45:02.609Z,973.68
2018-07-13T04:46:02.659Z,973.70
2018-07-13T04:47:02.709Z,973.69
2018-07-13T04:48:02.761Z,973.72
2018-07-13T04:49:02.826Z,973.72
2018-07-13T04:50:02.856Z,973.68
2018-07-13T04:51:02.925Z,973.70
2018-07-13T04:52:02.959Z,973.71
2018-07-13T04:53:02.998Z,973.68
2018-07-13T04:54:03.048Z,973.69
2018-07-13T04:55:03.099Z,973.69
2018-07-13T04:56:03.173Z,973.68
2018-07-13T04:57:03.195Z,973.64
2018-07-13T04:58:03.247Z,973.69
2018-07-13T04:59:03.297Z,973.68
2018-07-13T05:00:03.347Z,973.65
2018-07-13T05:01:03.416Z,973.64
2018-07-13T05:02:03.468Z,973.68
2018-07-13T05:03:03.493Z,973.68
2018-07-13T05:04:03.540Z,973.70
2018-07-13T05:05:03.589Z,973.69
2018-07-13T05:06:03.644Z,973.69
2018-07-13T05:07:03.711Z,973.74
2018-07-13T05:08:03.736Z,973.73
2018-07-13T05:09:03.789Z,973.73
2018-07-13T05:10:03.836Z,973.76
2018-07-13T05:11:03.887Z,973.75
2018-07-13T05:12:03.960Z,973.72
2018-07-13T05:13:03.985Z,973.74
2018-07-13T05:14:04.031Z,973.71
2018-07-13T05:15:04.086Z,973.72
2018-07-13T05:16:04.131Z,973.72
2018-07-13T05:17:04.220Z,973.74
2018-07-13T05:18:04.230Z,973.71
2018-07-13T05:19:04.279Z,973.69
2018-07-13T05:20:04.332Z,973.67
2018-07-13T05:21:04.376Z,973.70
2018-07-13T05:22:04.456Z,973.64
2018-07-13T05:23:04.477Z,973.68
2018-07-13T05:24:04.531Z,973.69
2018-07-13T05:25:04.573Z,973.70
2018-07-13T05:26:04.624Z,973.72
2018-07-13T05:27:04.709Z,973.75
2018-07-13T05:28:04.722Z,973.72
2018-07-13T05:29:04.778Z,973.73
2018-07-13T05:30:04.823Z,973.70
2018-07-13T05:31:04.873Z,973.72
2018-07-13T05:32:04.945Z,973.71
2018-07-13T05:33:04.972Z,973.73
2018-07-13T05:34:05.021Z,973.74
2018-07-13T05:35:05.072Z,973.76
2018-07-13T05:36:05.120Z,973.71
2018-07-13T05:37:05.194Z,973.72
2018-07-13T05:38:05.218Z,973.67
2018-07-13T05:39:05.268Z,973.68
2018-07-13T05:40:05.363Z,973.73
2018-07-13T05:41:05.366Z,973.71
2018-07-13T05:42:05.419Z,973.72
2018-07-13T05:43:05.490Z,973.72
2018-07-13T05:44:05.528Z,973.71
2018-07-13T05:45:05.590Z,973.73
2018-07-13T05:46:05.616Z,973.72
2018-07-13T05:47:05.667Z,973.74
2018-07-13T05:48:05.714Z,973.74
2018-07-13T05:49:05.767Z,973.71
2018-07-13T05:50:05.848Z,973.68
2018-07-13T05:51:05.866Z,973.71
2018-07-13T05:52:05.915Z,973.72
2018-07-13T05:53:05.964Z,973.75
2018-07-13T05:54:06.016Z,973.75
2018-07-13T05:55:06.089Z,973.73
2018-07-13T05:56:06.117Z,973.73
2018-07-13T05:57:06.161Z,973.75
2018-07-13T05:58:06.214Z,973.75
2018-07-13T05:59:06.297Z,973.71
2018-07-13T06:00:06.313Z,973.74
2018-07-13T06:01:06.369Z,973.80
2018-07-13T06:02:06.411Z,973.84
2018-07-13T06:03:06.466Z,973.85
2018-07-13T06:04:06.537Z,973.87
2018-07-13T06:05:06.561Z,973.86
2018-07-13T06:06:06.641Z,973.87
2018-07-13T06:07:06.662Z,973.85
2018-07-13T06:08:06.712Z,973.87
2018-07-13T06:09:06.766Z,973.90
2018-07-13T06:10:06.816Z,973.84
2018-07-13T06:11:06.884Z,973.84
2018-07-13T06:12:06.912Z,973.84
2018-07-13T06:13:06.965Z,973.85
2018-07-13T06:14:07.015Z,973.83
2018-07-13T06:15:07.873Z,973.83
2018-07-13T06:16:07.112Z,973.86
2018-07-13T06:17:07.232Z,973.86
2018-07-13T06:18:07.222Z,973.87
2018-07-13T06:19:07.263Z,973.93
2018-07-13T06:20:07.313Z,973.92
2018-07-13T06:21:07.386Z,973.92
2018-07-13T06:22:07.445Z,973.95
2018-07-13T06:23:07.463Z,973.97
2018-07-13T06:24:07.563Z,973.94
2018-07-13T06:25:07.563Z,973.96
2018-07-13T06:26:07.618Z,973.98
2018-07-13T06:27:07.704Z,973.96
2018-07-13T06:28:07.713Z,973.97
2018-07-13T06:29:07.765Z,973.98
2018-07-13T06:30:07.833Z,973.96
2018-07-13T06:31:07.865Z,973.98
2018-07-13T06:32:07.945Z,973.97
2018-07-13T06:33:07.968Z,974.03
2018-07-13T06:34:08.018Z,974.02
2018-07-13T06:35:08.066Z,974.04
2018-07-13T06:36:08.128Z,974.03
2018-07-13T06:37:08.204Z,974.09
2018-07-13T06:38:08.220Z,974.06
2018-07-13T06:39:10.333Z,974.03
2018-07-13T06:40:08.317Z,974.10
2018-07-13T06:41:08.370Z,974.06
2018-07-13T06:42:08.450Z,974.08
2018-07-13T06:43:08.471Z,974.08
2018-07-13T06:44:08.526Z,974.09
2018-07-13T06:45:08.568Z,974.10
2018-07-13T06:46:08.623Z,974.03
2018-07-13T06:47:08.694Z,974.05
2018-07-13T06:48:08.754Z,974.10
2018-07-13T06:49:08.771Z,974.06
2018-07-13T06:50:08.822Z,974.10
2018-07-13T06:51:08.873Z,974.07
2018-07-13T06:52:08.926Z,974.08
2018-07-13T06:53:09.003Z,974.08
2018-07-13T06:54:09.025Z,974.09
2018-07-13T06:55:09.078Z,974.07
2018-07-13T06:56:09.130Z,974.09
2018-07-13T06:57:09.185Z,974.12
2018-07-13T06:58:09.254Z,974.09
2018-07-13T06:59:09.281Z,974.08
2018-07-13T07:00:09.337Z,974.11
2018-07-13T07:01:09.382Z,974.11
2018-07-13T07:02:09.439Z,974.10
2018-07-13T07:03:09.512Z,974.14
2018-07-13T07:04:09.553Z,974.17
2018-07-13T07:05:09.589Z,974.12
2018-07-13T07:06:09.641Z,974.08
2018-07-13T07:07:09.692Z,974.10
2018-07-13T07:08:09.794Z,974.11
2018-07-13T07:09:09.797Z,974.11
2018-07-13T07:10:09.847Z,974.13
2018-07-13T07:11:09.899Z,974.09
2018-07-13T07:12:09.955Z,974.15
2018-07-13T07:13:10.040Z,974.15
2018-07-13T07:14:10.059Z,974.13
2018-07-13T07:15:10.110Z,974.13
2018-07-13T07:16:10.162Z,974.14
2018-07-13T07:17:10.212Z,974.15
2018-07-13T07:18:10.301Z,974.15
2018-07-13T07:19:10.317Z,974.15
2018-07-13T07:20:10.378Z,974.15
2018-07-13T07:21:10.424Z,974.15
2018-07-13T07:22:10.479Z,974.17
2018-07-13T07:23:10.571Z,974.14
2018-07-13T07:24:10.588Z,974.17
2018-07-13T07:25:10.639Z,974.14
2018-07-13T07:26:10.688Z,974.17
2018-07-13T07:27:10.742Z,974.19
2018-07-13T07:28:10.827Z,974.21
2018-07-13T07:29:10.850Z,974.17
2018-07-13T07:30:10.902Z,974.19
2018-07-13T07:31:10.953Z,974.20
2018-07-13T07:32:11.007Z,974.16
2018-07-13T07:33:11.091Z,974.17
2018-07-13T07:34:11.116Z,974.12
2018-07-13T07:35:11.175Z,974.14
2018-07-13T07:36:11.247Z,974.14
2018-07-13T07:37:11.273Z,974.15
2018-07-13T07:38:11.327Z,974.14
2018-07-13T07:39:11.380Z,974.11
2018-07-13T07:40:11.434Z,974.11
2018-07-13T07:41:11.509Z,974.13
2018-07-13T07:42:11.540Z,974.10
2018-07-13T07:43:11.594Z,974.13
2018-07-13T07:44:11.649Z,974.16
2018-07-13T07:45:11.703Z,974.11
2018-07-13T07:46:11.784Z,974.08
2018-07-13T07:47:11.807Z,974.12
2018-07-13T07:48:11.860Z,974.13
2018-07-13T07:49:11.913Z,974.12
2018-07-13T07:50:11.968Z,974.15
2018-07-13T07:51:12.055Z,974.11
2018-07-13T07:52:12.077Z,974.09
2018-07-13T07:53:12.137Z,974.07
2018-07-13T07:54:12.181Z,974.07
2018-07-13T07:55:12.241Z,974.05
2018-07-13T07:56:12.315Z,974.04
2018-07-13T07:57:12.368Z,974.04
2018-07-13T07:58:12.421Z,974.06
2018-07-13T07:59:12.458Z,974.06
2018-07-13T08:00:12.507Z,974.07
2018-07-13T08:01:12.559Z,974.05
2018-07-13T08:02:12.639Z,974.09
2018-07-13T08:03:12.666Z,974.09
2018-07-13T08:04:12.721Z,974.06
2018-07-13T08:05:12.778Z,974.05
2018-07-13T08:06:12.922Z,974.07
2018-07-13T08:07:13.260Z,974.07
2018-07-13T08:08:12.938Z,974.07
2018-07-13T08:09:12.989Z,974.03
2018-07-13T08:10:13.046Z,974.06
2018-07-13T08:11:13.101Z,974.02
2018-07-13T08:12:13.192Z,973.98
2018-07-13T08:13:13.206Z,974.00
2018-07-13T08:14:13.644Z,974.00
2018-07-13T08:15:13.315Z,974.02
2018-07-13T08:16:13.370Z,974.00
2018-07-13T08:17:13.453Z,974.01
2018-07-13T08:18:13.477Z,974.04
2018-07-13T08:19:13.535Z,974.01
2018-07-13T08:20:13.586Z,974.07
2018-07-13T08:21:13.639Z,974.03
2018-07-13T08:22:13.727Z,973.99
2018-07-13T08:23:13.751Z,974.01
2018-07-13T08:24:13.805Z,973.97
2018-07-13T08:25:13.857Z,973.99
2018-07-13T08:26:13.912Z,974.00
2018-07-13T08:27:14.006Z,973.96
2018-07-13T08:28:14.021Z,974.02
2018-07-13T08:29:14.077Z,973.99
2018-07-13T08:30:14.134Z,973.95
2018-07-13T08:31:14.188Z,973.94
2018-07-13T08:32:14.270Z,973.95
2018-07-13T08:33:14.295Z,973.92
2018-07-13T08:34:14.349Z,973.92
2018-07-13T08:35:14.405Z,973.93
2018-07-13T08:36:14.468Z,973.95
2018-07-13T08:37:14.542Z,973.93
2018-07-13T08:38:14.567Z,973.92
2018-07-13T08:39:14.623Z,973.94
2018-07-13T08:40:14.676Z,973.93
2018-07-13T08:41:14.735Z,973.91
2018-07-13T08:42:14.810Z,973.93
2018-07-13T08:43:14.840Z,973.91
2018-07-13T08:44:14.901Z,973.92
2018-07-13T08:45:14.978Z,973.94
2018-07-13T08:46:15.006Z,973.96
2018-07-13T08:47:15.058Z,973.98
2018-07-13T08:48:15.113Z,973.94
2018-07-13T08:49:15.168Z,973.98
2018-07-13T08:50:15.284Z,973.97
2018-07-13T08:51:15.284Z,973.99
2018-07-13T08:52:15.333Z,973.94
2018-07-13T08:53:15.385Z,973.94
2018-07-13T08:54:15.462Z,973.92
2018-07-13T08:55:15.494Z,973.91
2018-07-13T08:56:15.630Z,973.96
2018-07-13T08:57:15.604Z,973.96
2018-07-13T08:58:15.657Z,973.97
2018-07-13T08:59:15.714Z,973.95
2018-07-13T09:00:15.766Z,973.97
2018-07-13T09:01:15.846Z,973.96
2018-07-13T09:02:15.876Z,973.97
2018-07-13T09:03:15.943Z,973.93
2018-07-13T09:04:16.036Z,973.91
2018-07-13T09:05:16.039Z,973.94
2018-07-13T09:06:16.116Z,973.92
2018-07-13T09:07:16.155Z,973.96
2018-07-13T09:08:16.206Z,973.95
2018-07-13T09:09:16.260Z,973.97
2018-07-13T09:10:16.316Z,973.97
2018-07-13T09:11:16.392Z,973.99
2018-07-13T09:12:16.428Z,974.00
2018-07-13T09:13:16.476Z,974.04
2018-07-13T09:14:16.535Z,973.99
2018-07-13T09:15:16.591Z,974.02
2018-07-13T09:16:16.672Z,974.08
2018-07-13T09:17:16.697Z,974.06
2018-07-13T09:18:16.803Z,974.06
2018-07-13T09:19:16.809Z,974.08
2018-07-13T09:20:16.867Z,974.09
2018-07-13T09:21:16.943Z,974.06
2018-07-13T09:22:16.975Z,974.04
2018-07-13T09:23:17.055Z,974.08
2018-07-13T09:24:17.694Z,974.07
2018-07-13T09:25:17.150Z,974.03
2018-07-13T09:26:17.201Z,974.01
2018-07-13T09:27:17.261Z,973.98
2018-07-13T09:28:17.334Z,974.01
2018-07-13T09:29:17.371Z,974.03
2018-07-13T09:30:17.420Z,974.01
2018-07-13T09:31:17.527Z,974.01
2018-07-13T09:32:17.566Z,973.99
2018-07-13T09:33:17.612Z,974.00
2018-07-13T09:34:17.649Z,974.01
2018-07-13T09:35:17.697Z,974.01
2018-07-13T09:36:17.755Z,973.96
2018-07-13T09:37:17.837Z,973.97
2018-07-13T09:38:17.892Z,974.05
2018-07-13T09:39:17.953Z,973.98
2018-07-13T09:40:17.975Z,974.01
2018-07-13T09:41:18.040Z,974.01
2018-07-13T09:42:18.088Z,974.02
2018-07-13T09:43:18.161Z,974.02
2018-07-13T09:44:18.223Z,974.03
2018-07-13T09:45:18.254Z,974.06
2018-07-13T09:46:18.309Z,974.01
2018-07-13T09:47:18.365Z,974.00
2018-07-13T09:48:18.424Z,974.01
2018-07-13T09:49:18.517Z,974.02
2018-07-13T09:50:18.532Z,974.01
2018-07-13T09:51:18.588Z,974.02
2018-07-13T09:52:18.646Z,974.01
2018-07-13T09:53:18.699Z,974.01
2018-07-13T09:54:18.789Z,974.08
2018-07-13T09:55:18.811Z,974.05
2018-07-13T09:56:18.868Z,974.05
2018-07-13T09:57:18.925Z,974.07
2018-07-13T09:58:18.983Z,974.10
2018-07-13T09:59:19.068Z,974.09
2018-07-13T10:00:19.091Z,974.08
2018-07-13T10:01:19.148Z,974.08
2018-07-13T10:02:19.213Z,974.06
2018-07-13T10:03:19.260Z,974.03
2018-07-13T10:04:19.348Z,974.06
2018-07-13T10:05:19.404Z,974.05
2018-07-13T10:06:19.463Z,974.02
2018-07-13T10:07:19.484Z,974.01
2018-07-13T10:08:19.540Z,974.04
2018-07-13T10:09:19.596Z,974.02
2018-07-13T10:10:19.675Z,974.06
2018-07-13T10:11:19.708Z,974.03
2018-07-13T10:12:19.765Z,974.07
2018-07-13T10:13:19.849Z,974.03
2018-07-13T10:14:19.877Z,974.05
2018-07-13T10:15:19.960Z,974.02
2018-07-13T10:16:19.993Z,974.05
2018-07-13T10:17:20.049Z,974.01
2018-07-13T10:18:20.106Z,974.02
2018-07-13T10:19:20.161Z,974.04
2018-07-13T10:20:20.242Z,973.99
2018-07-13T10:21:20.299Z,973.99
2018-07-13T10:22:20.330Z,974.01
2018-07-13T10:23:20.401Z,974.00
2018-07-13T10:24:20.446Z,974.03
2018-07-13T10:25:20.535Z,974.00
2018-07-13T10:26:20.584Z,974.02
2018-07-13T10:27:20.615Z,973.98
2018-07-13T10:28:20.668Z,973.94
2018-07-13T10:29:20.830Z,974.03
2018-07-13T10:30:20.784Z,974.01
2018-07-13T10:31:20.861Z,974.00
2018-07-13T10:32:20.892Z,974.01
2018-07-13T10:33:20.946Z,973.97
2018-07-13T10:34:21.003Z,973.97
2018-07-13T10:35:21.099Z,973.95
2018-07-13T10:36:21.117Z,973.97
2018-07-13T10:37:21.197Z,973.92
2018-07-13T10:38:21.232Z,973.92
2018-07-13T10:39:21.288Z,973.99
2018-07-13T10:40:21.342Z,973.99
2018-07-13T10:41:21.444Z,973.96
2018-07-13T10:42:21.455Z,973.98
2018-07-13T10:43:21.515Z,973.94
2018-07-13T10:44:21.567Z,973.98
2018-07-13T10:45:21.625Z,973.92
2018-07-13T10:46:21.712Z,973.93
2018-07-13T10:47:21.761Z,973.89
2018-07-13T10:48:21.794Z,973.94
2018-07-13T10:49:21.847Z,973.87
2018-07-13T10:50:21.904Z,973.91
2018-07-13T10:51:21.967Z,973.88
2018-07-13T10:52:22.062Z,973.86
2018-07-13T10:53:22.074Z,973.88
2018-07-13T10:54:22.131Z,973.85
2018-07-13T10:55:22.187Z,973.83
2018-07-13T10:56:22.247Z,973.86
2018-07-13T10:57:22.335Z,973.87
2018-07-13T10:58:22.362Z,973.88
2018-07-13T10:59:22.421Z,973.82
2018-07-13T11:00:22.477Z,973.83
2018-07-13T11:01:22.531Z,973.81
2018-07-13T11:02:22.613Z,973.82
2018-07-13T11:03:22.645Z,973.78
2018-07-13T11:04:22.698Z,973.80
2018-07-13T11:05:22.753Z,973.77
2018-07-13T11:06:22.819Z,973.78
2018-07-13T11:07:22.895Z,973.80
2018-07-13T11:08:22.993Z,973.80
2018-07-13T11:09:22.981Z,973.78
2018-07-13T11:10:23.038Z,973.78
2018-07-13T11:11:23.097Z,973.78
2018-07-13T11:12:23.176Z,973.77
2018-07-13T11:13:23.232Z,973.76
2018-07-13T11:14:23.261Z,973.75
2018-07-13T11:15:23.318Z,973.74
2018-07-13T11:16:23.377Z,973.72
2018-07-13T11:17:23.432Z,973.75
2018-07-13T11:18:23.515Z,973.72
2018-07-13T11:19:23.566Z,973.73
2018-07-13T11:20:23.608Z,973.75
2018-07-13T11:21:23.655Z,973.73
2018-07-13T11:22:23.712Z,973.66
2018-07-13T11:23:23.769Z,973.69
2018-07-13T11:24:23.877Z,973.67
2018-07-13T11:25:23.883Z,973.66
2018-07-13T11:26:23.941Z,973.64
2018-07-13T11:27:23.995Z,973.66
2018-07-13T11:28:24.053Z,973.67
2018-07-13T11:29:24.133Z,973.65
2018-07-13T11:30:24.168Z,973.69
2018-07-13T11:31:24.222Z,973.66
2018-07-13T11:32:24.282Z,973.68
2018-07-13T11:33:24.343Z,973.67
2018-07-13T11:34:24.421Z,973.69
2018-07-13T11:35:24.449Z,973.70
2018-07-13T11:36:24.507Z,973.71
2018-07-13T11:37:24.704Z,973.71
2018-07-13T11:38:24.621Z,973.67
2018-07-13T11:39:24.705Z,973.69
2018-07-13T11:40:24.736Z,973.68
2018-07-13T11:41:24.793Z,973.70
2018-07-13T11:42:24.845Z,973.65
2018-07-13T11:43:24.906Z,973.69
2018-07-13T11:44:24.987Z,973.65
2018-07-13T11:45:25.049Z,973.65
2018-07-13T11:46:25.075Z,973.67
2018-07-13T11:47:25.130Z,973.71
2018-07-13T11:48:25.189Z,973.65
2018-07-13T11:49:25.245Z,973.60
2018-07-13T11:50:25.327Z,973.68
2018-07-13T11:51:25.359Z,973.63
2018-07-13T11:52:25.417Z,973.65
2018-07-13T11:53:25.471Z,973.61
2018-07-13T11:54:25.531Z,973.61
2018-07-13T11:55:25.612Z,973.63
2018-07-13T11:56:25.645Z,973.60
2018-07-13T11:57:25.703Z,973.64
2018-07-13T11:58:25.760Z,973.63
2018-07-13T11:59:25.819Z,973.64
2018-07-13T12:00:25.939Z,973.62
2018-07-13T12:01:25.930Z,973.63
2018-07-13T12:02:25.988Z,973.62
2018-07-13T12:03:26.045Z,973.59
2018-07-13T12:04:26.104Z,973.60
2018-07-13T12:05:26.193Z,973.58
2018-07-13T12:06:26.220Z,973.54
2018-07-13T12:07:26.360Z,973.53
2018-07-13T12:08:26.334Z,973.57
2018-07-13T12:09:26.388Z,973.54
2018-07-13T12:10:26.478Z,973.54
2018-07-13T12:11:26.505Z,973.53
2018-07-13T12:12:26.570Z,973.50
2018-07-13T12:13:26.632Z,973.44
2018-07-13T12:14:26.741Z,973.48
2018-07-13T12:15:26.765Z,973.46
2018-07-13T12:16:26.802Z,973.42
2018-07-13T12:17:26.917Z,973.36
2018-07-13T12:18:26.911Z,973.39
2018-07-13T12:19:26.967Z,973.40
2018-07-13T12:20:27.025Z,973.40
2018-07-13T12:21:27.092Z,973.36
2018-07-13T12:22:27.167Z,973.34
2018-07-13T12:23:27.202Z,973.34
2018-07-13T12:24:27.260Z,973.35
2018-07-13T12:25:27.319Z,973.38
2018-07-13T12:26:27.401Z,973.37
2018-07-13T12:27:27.435Z,973.37
2018-07-13T12:28:27.517Z,973.37
2018-07-13T12:29:27.554Z,973.36